Time;durP1;ratioP1;P1;durP2;ratioP2;P2;SDS_P1;SDS_P2;PMS_P1;PMS_P2;Temp;Humidity;BMP_temperature;BMP_pressure;BME280_temperature;BME280_humidity;BME280_pressure;Samples;Min_cycle;Max_cycle;Signal;HPM_P1;HPM_P2
2022/03/27 00:01:11;;;;;;;21.50;3.53;;;;;;;6.13;58.68;97358.09;5076022;28;20204;-68
2022/03/27 00:03:38;;;;;;;15.63;4.37;;;;;;;5.99;58.10;97364.56;5075480;28;20207;-68
2022/03/27 00:06:04;;;;;;;5.60;3.40;;;;;;;5.96;58.29;97365.66;5075406;28;20219;-68
2022/03/27 00:08:31;;;;;;;9.97;3.27;;;;;;;5.88;58.48;97360.19;5072993;28;20203;-70
2022/03/27 00:13:42;;;;;;;7.03;2.67;;;;;;;5.42;59.33;97363.84;5074822;28;20199;-69
2022/03/27 00:16:09;;;;;;;13.43;3.17;;;;;;;5.42;58.47;97360.44;5074553;28;20224;-67
2022/03/27 00:18:37;;;;;;;4.77;2.63;;;;;;;5.57;59.26;97362.69;5075523;28;20534;-69
2022/03/27 00:21:04;;;;;;;4.67;2.73;;;;;;;5.41;59.72;97367.44;5078926;28;20196;-68
2022/03/27 00:23:31;;;;;;;5.90;3.20;;;;;;;5.42;59.15;97361.25;5077746;28;21165;-67
2022/03/27 00:25:57;;;;;;;6.33;2.97;;;;;;;5.30;59.71;97366.59;5079483;28;20223;-67
2022/03/27 00:28:25;;;;;;;3.27;1.70;;;;;;;5.20;59.17;97363.84;5079276;28;20222;-67
2022/03/27 00:30:51;;;;;;;10.33;4.03;;;;;;;5.02;59.57;97360.03;5079284;28;20212;-68
2022/03/27 00:33:18;;;;;;;16.37;2.70;;;;;;;5.08;60.13;97364.78;5078574;28;20203;-68
2022/03/27 00:35:46;;;;;;;5.10;3.70;;;;;;;5.09;60.48;97356.03;5079112;28;20219;-68
2022/03/27 00:38:13;;;;;;;16.43;3.73;;;;;;;4.86;61.69;97358.69;5078678;28;20204;-67
2022/03/27 00:40:39;;;;;;;12.00;4.00;;;;;;;5.05;61.10;97354.59;5078779;28;20672;-69
2022/03/27 00:43:06;;;;;;;6.30;3.37;;;;;;;5.30;60.43;97350.94;5078008;28;20212;-68
2022/03/27 00:45:33;;;;;;;14.87;3.57;;;;;;;5.27;60.21;97351.16;5077771;28;20234;-69
2022/03/27 00:47:59;;;;;;;6.03;2.77;;;;;;;5.35;60.11;97357.47;5079005;28;20219;-67
2022/03/27 00:50:26;;;;;;;10.77;3.17;;;;;;;5.08;60.41;97354.34;5079134;28;20212;-69
2022/03/27 00:52:54;;;;;;;6.47;3.27;;;;;;;5.39;60.57;97350.22;5077732;28;20208;-68
2022/03/27 00:55:20;;;;;;;11.47;3.60;;;;;;;5.20;59.52;97353.41;5078423;28;20224;-68
2022/03/27 00:57:47;;;;;;;5.23;2.37;;;;;;;5.21;59.70;97344.63;5079481;28;20211;-69
2022/03/27 01:00:36;;;;;;;4.13;2.43;;;;;;;5.32;59.88;97344.63;5078795;28;20210;-69
2022/03/27 01:03:05;;;;;;;3.57;1.47;;;;;;;5.20;60.57;97342.94;5077072;28;20231;-69
2022/03/27 01:05:32;;;;;;;7.17;2.90;;;;;;;5.28;60.38;97344.97;5077871;28;21138;-67
2022/03/27 01:08:05;;;;;;;8.17;2.53;;;;;;;5.29;59.55;97339.63;5077200;28;20680;-67
2022/03/27 01:10:31;;;;;;;5.30;1.60;;;;;;;4.90;61.26;97336.59;5077884;28;20215;-67
2022/03/27 01:12:57;;;;;;;6.23;2.47;;;;;;;4.88;60.85;97336.72;5077856;28;20195;-69
2022/03/27 01:15:27;;;;;;;5.33;3.23;;;;;;;5.03;60.64;97339.97;5078105;28;20223;-67
2022/03/27 01:17:54;;;;;;;6.03;2.60;;;;;;;4.72;61.34;97345.00;5077712;28;20966;-67
2022/03/27 01:20:32;;;;;;;5.80;2.80;;;;;;;5.05;62.45;97338.91;5078138;28;20204;-68
2022/03/27 01:22:59;;;;;;;8.10;2.77;;;;;;;4.85;61.44;97339.59;5077298;28;20203;-69
2022/03/27 01:25:26;;;;;;;6.03;2.53;;;;;;;4.94;60.54;97332.84;5077682;28;20246;-69
2022/03/27 01:27:52;;;;;;;5.83;2.23;;;;;;;5.11;61.34;97332.38;5077260;28;21059;-68
2022/03/27 01:30:19;;;;;;;4.53;2.20;;;;;;;5.03;60.44;97335.56;5078002;28;20215;-68
2022/03/27 01:32:50;;;;;;;3.33;2.37;;;;;;;4.91;60.58;97330.44;5076342;28;20204;-68
2022/03/27 01:35:18;;;;;;;3.93;2.33;;;;;;;5.01;60.55;97334.03;5076412;28;20216;-68
2022/03/27 01:37:46;;;;;;;5.83;2.63;;;;;;;5.08;61.99;97325.63;5077797;28;20594;-68
2022/03/27 01:40:13;;;;;;;14.47;3.17;;;;;;;4.99;61.79;97328.94;5078193;28;20223;-68
2022/03/27 01:42:39;;;;;;;9.23;3.27;;;;;;;5.01;61.58;97334.03;5076440;28;20204;-67
2022/03/27 01:45:07;;;;;;;4.60;2.53;;;;;;;5.14;61.72;97327.75;5077532;28;20246;-69
2022/03/27 01:47:34;;;;;;;7.67;2.60;;;;;;;4.73;61.55;97331.03;5075872;28;20215;-67
2022/03/27 01:50:01;;;;;;;6.37;2.57;;;;;;;4.79;61.35;97327.94;5078323;28;20203;-67
2022/03/27 01:52:28;;;;;;;5.13;2.33;;;;;;;4.48;61.22;97318.97;5076617;28;20210;-68
2022/03/27 01:54:56;;;;;;;5.63;2.83;;;;;;;4.57;61.91;97315.69;5077442;28;20212;-66
2022/03/27 01:57:22;;;;;;;3.73;1.87;;;;;;;4.27;62.03;97322.31;5077052;28;20594;-66
2022/03/27 01:59:49;;;;;;;10.27;4.70;;;;;;;4.29;61.82;97323.06;5077368;28;20220;-68
2022/03/27 02:02:23;;;;;;;7.23;2.80;;;;;;;4.42;62.65;97322.03;5076690;28;20203;-67
2022/03/27 02:04:50;;;;;;;6.13;3.20;;;;;;;4.28;63.19;97324.81;5076920;28;20753;-68
2022/03/27 02:07:16;;;;;;;9.77;4.47;;;;;;;4.31;62.83;97319.38;5076745;28;20204;-67
2022/03/27 02:09:43;;;;;;;6.40;2.83;;;;;;;4.28;63.39;97313.56;5074779;28;20195;-68
2022/03/27 02:12:11;;;;;;;4.27;2.50;;;;;;;4.58;63.41;97312.13;5077330;28;20196;-68
2022/03/27 02:14:38;;;;;;;4.30;2.70;;;;;;;4.35;62.95;97314.75;5076407;28;20231;-68
2022/03/27 02:17:05;;;;;;;8.53;2.50;;;;;;;4.49;62.52;97317.19;5076596;28;20285;-69
2022/03/27 02:19:31;;;;;;;7.70;3.03;;;;;;;4.46;62.83;97318.25;5077150;28;20676;-68
2022/03/27 02:21:58;;;;;;;3.47;1.70;;;;;;;4.44;62.95;97319.28;5076871;28;20200;-69
2022/03/27 02:24:24;;;;;;;5.93;2.90;;;;;;;4.44;62.06;97316.69;5075489;28;20235;-68
2022/03/27 02:26:51;;;;;;;9.17;3.43;;;;;;;4.18;62.87;97315.19;5077199;28;20231;-68
2022/03/27 02:29:19;;;;;;;4.63;2.83;;;;;;;4.14;63.05;97321.56;5076614;28;20199;-67
2022/03/27 02:31:47;;;;;;;6.27;2.07;;;;;;;4.23;63.20;97321.72;5076749;28;20628;-69
2022/03/27 02:34:14;;;;;;;12.17;4.23;;;;;;;4.29;63.07;97321.28;5075511;28;20680;-68
2022/03/27 02:36:41;;;;;;;11.27;3.57;;;;;;;4.17;64.35;97320.50;5076459;28;20200;-69
2022/03/27 02:39:09;;;;;;;8.80;4.43;;;;;;;4.16;64.51;97324.06;5076247;28;20203;-67
2022/03/27 02:41:36;;;;;;;6.07;3.77;;;;;;;3.89;65.71;97326.06;5076557;28;21088;-69
2022/03/27 02:44:02;;;;;;;10.27;3.93;;;;;;;4.05;65.58;97329.22;5075693;28;20204;-66
2022/03/27 02:46:30;;;;;;;5.03;2.47;;;;;;;4.35;64.71;97326.03;5075764;28;20238;-69
2022/03/27 02:48:57;;;;;;;10.20;2.77;;;;;;;4.25;64.54;97324.19;5076469;28;20199;-69
2022/03/27 02:51:23;;;;;;;11.33;2.80;;;;;;;4.27;64.59;97319.72;5076358;28;20211;-68
2022/03/27 02:53:50;;;;;;;5.20;2.47;;;;;;;4.24;64.00;97327.78;5071604;28;20204;-68
2022/03/27 02:56:16;;;;;;;7.03;2.87;;;;;;;3.90;63.86;97323.34;5076468;28;20988;-68
2022/03/27 02:58:43;;;;;;;5.07;2.80;;;;;;;4.00;63.77;97329.56;5076851;28;20210;-69
2022/03/27 03:01:10;;;;;;;7.10;2.93;;;;;;;3.84;64.29;97323.75;5076011;28;20207;-68
2022/03/27 03:03:38;;;;;;;5.23;3.00;;;;;;;3.94;64.93;97327.38;5075837;28;20331;-69
2022/03/27 03:06:07;;;;;;;4.67;1.40;;;;;;;4.06;65.24;97315.22;5075765;28;20230;-67
2022/03/27 03:08:37;;;;;;;5.10;1.63;;;;;;;4.05;64.32;97318.78;5073775;28;20303;-67
2022/03/27 03:11:04;;;;;;;3.17;1.47;;;;;;;3.81;64.33;97321.38;5076859;28;20204;-67
2022/03/27 03:13:30;;;;;;;9.73;2.40;;;;;;;3.90;65.18;97323.34;5075460;28;20200;-67
2022/03/27 03:15:58;;;;;;;4.53;2.90;;;;;;;4.03;65.27;97318.88;5075620;28;20249;-66
2022/03/27 03:18:26;;;;;;;5.70;3.57;;;;;;;3.85;66.12;97330.66;5075898;28;20679;-66
2022/03/27 03:20:54;;;;;;;3.03;1.93;;;;;;;3.99;66.51;97325.28;5076939;28;20199;-68
2022/03/27 03:23:20;;;;;;;16.77;2.10;;;;;;;3.93;66.31;97332.72;5074261;28;20208;-68
2022/03/27 03:25:47;;;;;;;8.30;2.10;;;;;;;3.89;66.43;97326.06;5075398;28;20231;-66
2022/03/27 03:28:13;;;;;;;3.17;1.90;;;;;;;3.82;66.99;97315.25;5077690;28;20545;-68
2022/03/27 03:30:40;;;;;;;2.90;2.17;;;;;;;3.74;66.34;97322.78;5075773;28;20200;-68
2022/03/27 03:33:07;;;;;;;5.63;3.13;;;;;;;3.61;65.00;97321.16;5074585;28;20203;-66
2022/03/27 03:35:34;;;;;;;9.23;2.60;;;;;;;3.62;65.40;97327.22;5075853;28;20228;-67
2022/03/27 03:38:02;;;;;;;12.43;3.17;;;;;;;3.60;66.54;97323.88;5076329;28;20207;-68
2022/03/27 03:40:28;;;;;;;7.60;3.50;;;;;;;3.38;66.77;97331.53;5075582;28;20778;-68
2022/03/27 03:42:55;;;;;;;4.90;3.17;;;;;;;3.53;66.34;97333.06;5074575;28;20590;-69
2022/03/27 03:45:21;;;;;;;5.10;1.67;;;;;;;3.54;67.93;97329.50;5076110;28;20230;-68
2022/03/27 03:47:48;;;;;;;13.67;3.23;;;;;;;3.59;67.43;97325.66;5075439;28;20211;-66
2022/03/27 03:50:14;;;;;;;8.33;2.83;;;;;;;3.79;65.18;97319.84;5075533;28;20210;-67
2022/03/27 03:52:41;;;;;;;6.07;2.47;;;;;;;3.62;65.83;97328.84;5075047;28;20575;-68
2022/03/27 03:55:09;;;;;;;3.70;3.20;;;;;;;3.91;65.76;97321.59;5077092;28;20227;-68
2022/03/27 03:57:36;;;;;;;6.17;2.47;;;;;;;3.75;66.09;97324.44;5079719;28;20730;-68
2022/03/27 04:00:04;;;;;;;7.30;2.77;;;;;;;3.86;66.17;97327.09;5079784;28;20206;-67
2022/03/27 04:02:31;;;;;;;8.87;3.43;;;;;;;3.74;65.93;97328.00;5078475;28;20215;-67
2022/03/27 04:04:58;;;;;;;3.77;2.40;;;;;;;3.75;66.23;97321.81;5079418;28;20229;-67
2022/03/27 04:07:25;;;;;;;8.87;2.57;;;;;;;3.67;66.50;97324.16;5079578;28;20400;-69
2022/03/27 04:09:51;;;;;;;9.63;3.27;;;;;;;3.43;67.40;97332.88;5077224;28;20203;-67
2022/03/27 04:12:19;;;;;;;10.03;2.40;;;;;;;3.74;66.05;97321.94;5079264;28;20207;-66
2022/03/27 04:14:46;;;;;;;4.67;2.70;;;;;;;3.62;66.48;97322.81;5079432;28;20216;-67
2022/03/27 04:17:12;;;;;;;10.20;4.00;;;;;;;3.60;66.81;97323.88;5079418;28;20206;-68
2022/03/27 04:19:40;;;;;;;13.07;3.13;;;;;;;3.66;65.94;97319.88;5079592;28;20254;-68
2022/03/27 04:22:07;;;;;;;8.20;2.40;;;;;;;3.64;66.45;97323.56;5079912;28;20199;-69
2022/03/27 04:24:34;;;;;;;3.27;1.87;;;;;;;3.69;66.66;97335.31;5078934;28;20227;-68
2022/03/27 04:27:00;;;;;;;3.50;2.10;;;;;;;3.57;66.78;97324.91;5079040;28;20728;-68
2022/03/27 04:29:28;;;;;;;4.27;2.57;;;;;;;3.73;67.74;97322.91;5079501;28;20213;-68
2022/03/27 04:31:55;;;;;;;8.20;3.10;;;;;;;3.56;68.80;97328.44;5079338;28;20290;-69
2022/03/27 04:34:21;;;;;;;8.13;3.30;;;;;;;3.65;68.01;97330.41;5078079;28;20203;-69
2022/03/27 04:36:49;;;;;;;5.63;2.20;;;;;;;3.54;65.30;97338.16;5080344;28;20202;-66
2022/03/27 04:39:15;;;;;;;7.53;2.10;;;;;;;3.59;65.60;97328.25;5078932;28;20293;-68
2022/03/27 04:41:42;;;;;;;6.07;3.60;;;;;;;3.60;66.55;97332.50;5078438;28;20213;-68
2022/03/27 04:44:09;;;;;;;7.50;2.63;;;;;;;3.62;67.23;97342.84;5078845;28;20311;-66
2022/03/27 04:46:37;;;;;;;3.07;2.00;;;;;;;3.53;67.23;97335.69;5079248;28;20239;-69
2022/03/27 04:49:04;;;;;;;7.10;2.40;;;;;;;3.38;67.01;97341.94;5078770;28;21025;-67
2022/03/27 04:51:30;;;;;;;19.77;3.93;;;;;;;3.43;67.10;97340.69;5078178;28;20214;-67
2022/03/27 04:53:58;;;;;;;6.07;2.67;;;;;;;3.63;67.74;97335.72;5078607;28;20206;-69
2022/03/27 04:56:24;;;;;;;7.93;4.17;;;;;;;3.41;67.19;97339.13;5078968;28;20228;-68
2022/03/27 04:58:51;;;;;;;4.73;3.00;;;;;;;3.50;66.64;97334.13;5078247;28;20210;-67
2022/03/27 05:01:17;;;;;;;5.67;2.77;;;;;;;3.38;65.87;97339.34;5079182;28;20202;-68
2022/03/27 05:03:45;;;;;;;6.33;3.20;;;;;;;3.52;65.39;97342.63;5077498;28;20223;-68
2022/03/27 05:06:12;;;;;;;11.00;3.50;;;;;;;3.31;65.47;97340.69;5077252;28;20233;-68
2022/03/27 05:08:38;;;;;;;2.80;2.00;;;;;;;3.30;65.71;97342.47;5076169;28;20206;-68
2022/03/27 05:11:06;;;;;;;5.37;2.20;;;;;;;3.00;67.19;97348.97;5078455;28;20204;-67
2022/03/27 05:13:32;;;;;;;2.80;1.83;;;;;;;2.82;67.22;97358.00;5077629;28;20200;-66
2022/03/27 05:15:59;;;;;;;4.67;2.80;;;;;;;3.04;67.07;97353.88;5078855;28;20214;-67
2022/03/27 05:18:25;;;;;;;7.83;3.53;;;;;;;3.01;66.98;97342.81;5078127;28;20207;-69
2022/03/27 05:20:53;;;;;;;6.73;3.03;;;;;;;3.10;66.87;97345.63;5077836;28;20200;-67
2022/03/27 05:23:20;;;;;;;6.10;2.00;;;;;;;3.06;65.93;97349.38;5077356;28;20201;-66
2022/03/27 05:25:48;;;;;;;2.93;1.93;;;;;;;3.13;66.21;97347.19;5078308;28;20764;-66
2022/03/27 05:28:15;;;;;;;6.37;3.03;;;;;;;3.07;66.35;97350.22;5078044;28;20207;-68
2022/03/27 05:30:43;;;;;;;2.40;1.67;;;;;;;3.05;66.77;97349.47;5078728;28;20582;-69
2022/03/27 05:33:09;;;;;;;2.70;1.80;;;;;;;2.88;66.34;97344.59;5077465;28;20561;-68
2022/03/27 05:35:37;;;;;;;3.43;2.30;;;;;;;3.09;66.65;97353.53;5077994;28;20228;-68
2022/03/27 05:38:05;;;;;;;5.77;1.93;;;;;;;3.32;66.65;97344.97;5077742;28;20202;-69
2022/03/27 05:40:31;;;;;;;21.37;2.03;;;;;;;3.13;66.56;97350.63;5078244;28;20965;-68
2022/03/27 05:42:58;;;;;;;4.00;2.87;;;;;;;3.15;67.81;97347.91;5076791;28;20222;-68
2022/03/27 05:45:25;;;;;;;3.83;2.20;;;;;;;3.04;66.87;97350.41;5077951;28;20241;-66
2022/03/27 05:47:52;;;;;;;3.43;2.07;;;;;;;3.32;67.52;97352.78;5078198;28;20253;-66
2022/03/27 05:50:22;;;;;;;5.20;2.77;;;;;;;3.23;68.71;97356.03;5077753;28;20196;-67
2022/03/27 05:52:49;;;;;;;7.63;3.77;;;;;;;3.57;71.32;97355.38;5076662;28;20444;-67
2022/03/27 05:55:17;;;;;;;8.07;2.83;;;;;;;3.96;68.40;97348.97;5076858;28;20472;-67
2022/03/27 05:57:44;;;;;;;8.00;2.00;;;;;;;3.95;67.81;97362.13;5077896;28;20202;-68
2022/03/27 06:00:13;;;;;;;2.30;2.00;;;;;;;3.82;67.76;97367.38;5082472;28;20730;-69
2022/03/27 06:02:40;;;;;;;5.80;2.20;;;;;;;3.91;67.61;97361.50;5076277;28;20211;-69
2022/03/27 06:05:07;;;;;;;6.70;3.03;;;;;;;4.08;67.97;97363.72;5078142;28;20594;-68
2022/03/27 06:07:42;;;;;;;4.07;2.67;;;;;;;4.41;67.16;97361.28;5077534;28;20924;-66
2022/03/27 06:10:10;;;;;;;11.37;3.30;;;;;;;4.22;68.05;97365.34;5074110;28;20252;-68
2022/03/27 06:12:38;;;;;;;6.27;2.77;;;;;;;4.43;68.35;97359.38;5076613;28;20204;-67
2022/03/27 06:15:05;;;;;;;6.47;2.10;;;;;;;4.40;68.62;97359.63;5077644;28;20727;-65
2022/03/27 06:17:39;;;;;;;5.47;3.07;;;;;;;4.57;68.41;97364.41;5076900;28;20206;-68
2022/03/27 06:20:07;;;;;;;5.10;3.17;;;;;;;4.45;68.42;97366.16;5076705;28;20299;-68
2022/03/27 06:22:33;;;;;;;3.93;2.60;;;;;;;4.55;69.26;97368.94;5076260;28;20268;-66
2022/03/27 06:25:00;;;;;;;6.37;2.57;;;;;;;4.54;68.75;97365.47;5077470;28;20230;-68
2022/03/27 06:27:27;;;;;;;5.77;2.93;;;;;;;4.71;68.28;97361.63;5076769;28;20211;-68
2022/03/27 06:29:55;;;;;;;8.13;2.47;;;;;;;4.86;69.28;97361.28;5077120;28;20204;-68
2022/03/27 06:32:21;;;;;;;11.83;5.13;;;;;;;4.99;68.12;97360.28;5076203;28;20196;-68
2022/03/27 06:34:48;;;;;;;14.07;5.37;;;;;;;5.02;67.32;97357.41;5076792;28;20219;-68
2022/03/27 06:37:14;;;;;;;27.70;5.07;;;;;;;5.31;67.02;97356.03;5076675;28;20675;-67
2022/03/27 06:39:41;;;;;;;22.40;6.83;;;;;;;5.51;66.85;97356.16;5077066;28;20199;-68
2022/03/27 06:42:09;;;;;;;15.00;7.03;;;;;;;5.73;66.69;97350.09;5076165;28;20219;-66
2022/03/27 06:44:36;;;;;;;29.80;5.57;;;;;;;5.75;66.31;97354.25;5077045;28;20232;-66
2022/03/27 06:47:07;;;;;;;12.03;5.07;;;;;;;6.01;66.79;97354.78;5076709;28;20223;-67
2022/03/27 06:49:34;;;;;;;8.87;3.90;;;;;;;6.03;66.29;97356.34;5077012;28;20659;-68
2022/03/27 06:52:01;;;;;;;22.97;4.63;;;;;;;6.17;65.57;97354.31;5077238;28;20203;-69
2022/03/27 06:54:29;;;;;;;8.27;3.43;;;;;;;6.20;66.61;97355.84;5075137;28;20223;-67
2022/03/27 06:56:55;;;;;;;7.73;4.37;;;;;;;6.46;66.10;97352.75;5076556;28;20206;-69
2022/03/27 06:59:22;;;;;;;8.27;4.17;;;;;;;6.65;65.61;97352.91;5076490;28;20208;-69
2022/03/27 07:04:34;;;;;;;16.10;4.33;;;;;;;7.15;65.88;97349.53;5075816;28;20231;-66
2022/03/27 07:07:00;;;;;;;13.07;4.97;;;;;;;7.24;65.67;97348.75;5076633;28;20557;-69
2022/03/27 07:09:27;;;;;;;11.93;4.10;;;;;;;7.33;66.12;97346.16;5072885;28;20227;-69
2022/03/27 07:11:53;;;;;;;18.53;3.70;;;;;;;7.66;65.94;97357.25;5076193;28;20203;-68
2022/03/27 07:14:20;;;;;;;11.73;3.83;;;;;;;7.86;66.89;97351.09;5075868;28;20210;-68
2022/03/27 07:16:46;;;;;;;12.57;3.97;;;;;;;8.14;67.25;97342.50;5076462;28;20207;-68
2022/03/27 07:19:14;;;;;;;14.43;4.00;;;;;;;8.48;68.18;97343.75;5076219;28;20200;-69
2022/03/27 07:21:42;;;;;;;5.77;3.17;;;;;;;8.73;67.27;97347.53;5075470;28;20199;-67
2022/03/27 07:24:09;;;;;;;8.20;3.73;;;;;;;8.80;66.28;97348.59;5075701;28;20250;-69
2022/03/27 07:26:36;;;;;;;9.97;4.33;;;;;;;9.07;67.19;97347.91;5075860;28;20250;-67
2022/03/27 07:29:04;;;;;;;11.93;4.70;;;;;;;9.15;66.25;97348.81;5075062;28;20207;-69
2022/03/27 07:31:31;;;;;;;17.47;4.33;;;;;;;9.07;66.89;97353.97;5075649;28;20208;-69
2022/03/27 07:33:58;;;;;;;16.83;6.60;;;;;;;9.29;65.65;97361.53;5075167;28;20679;-68
2022/03/27 07:36:24;;;;;;;16.40;5.57;;;;;;;9.44;65.20;97352.22;5076151;28;20239;-68
2022/03/27 07:38:52;;;;;;;10.80;4.40;;;;;;;9.80;65.30;97352.22;5075997;28;21092;-69
2022/03/27 07:41:18;;;;;;;11.53;4.70;;;;;;;9.79;63.39;97351.41;5075837;28;20208;-67
2022/03/27 07:43:45;;;;;;;8.40;3.70;;;;;;;9.82;64.00;97351.09;5075466;28;20195;-68
2022/03/27 07:46:11;;;;;;;9.13;4.07;;;;;;;9.99;63.29;97358.28;5075081;28;20223;-69
2022/03/27 07:48:38;;;;;;;14.07;4.60;;;;;;;9.94;62.04;97357.84;5075723;28;20210;-67
2022/03/27 07:51:06;;;;;;;10.67;4.47;;;;;;;10.11;64.00;97358.91;5075919;28;20202;-68
2022/03/27 07:53:33;;;;;;;11.47;4.67;;;;;;;10.32;62.95;97357.66;5074529;28;20203;-69
2022/03/27 07:56:00;;;;;;;8.07;3.80;;;;;;;10.30;62.93;97351.72;5075431;28;20251;-69
2022/03/27 07:58:27;;;;;;;12.67;4.60;;;;;;;10.52;63.41;97357.38;5076109;28;20211;-67
2022/03/27 08:00:53;;;;;;;14.27;5.07;;;;;;;10.63;62.41;97351.91;5075676;28;20207;-69
2022/03/27 08:03:20;;;;;;;13.20;4.43;;;;;;;10.66;60.29;97358.69;5074819;28;20196;-68
2022/03/27 08:05:46;;;;;;;11.30;4.33;;;;;;;10.63;61.81;97353.72;5075763;28;20227;-67
2022/03/27 08:08:13;;;;;;;19.77;5.97;;;;;;;10.72;59.75;97369.44;5072631;28;20246;-69
2022/03/27 08:10:39;;;;;;;10.03;4.73;;;;;;;10.90;58.56;97357.09;5074828;28;20208;-67
2022/03/27 08:13:07;;;;;;;11.00;4.23;;;;;;;10.93;58.98;97362.88;5075040;28;20692;-67
2022/03/27 08:15:34;;;;;;;13.10;4.43;;;;;;;11.03;58.00;97357.53;5075648;28;20722;-68
2022/03/27 08:18:00;;;;;;;11.20;4.50;;;;;;;11.17;59.75;97355.16;5075134;28;20206;-69
2022/03/27 08:20:29;;;;;;;8.73;4.17;;;;;;;11.30;58.99;97355.59;5075520;28;20210;-69
2022/03/27 08:22:56;;;;;;;19.70;4.67;;;;;;;11.48;56.37;97348.47;5074971;28;20235;-67
2022/03/27 08:28:10;;;;;;;13.67;3.90;;;;;;;11.39;57.15;97338.84;5073128;28;20222;-68
2022/03/27 08:30:37;;;;;;;14.37;4.83;;;;;;;11.63;54.28;97354.84;5074607;28;20709;-66
2022/03/27 08:33:04;;;;;;;10.20;4.43;;;;;;;11.75;54.40;97345.69;5074039;28;20232;-67
2022/03/27 08:35:30;;;;;;;20.37;5.10;;;;;;;12.12;54.20;97346.16;5074467;28;20228;-67
2022/03/27 08:37:57;;;;;;;10.33;4.63;;;;;;;12.09;53.70;97346.47;5074846;28;20568;-67
2022/03/27 08:40:24;;;;;;;11.60;4.67;;;;;;;12.24;52.74;97345.69;5075499;28;20230;-67
2022/03/27 08:42:50;;;;;;;17.87;6.10;;;;;;;12.40;51.25;97343.13;5077263;28;20226;-67
2022/03/27 08:45:19;;;;;;;10.67;4.23;;;;;;;12.65;52.31;97348.28;5078651;28;20230;-67
2022/03/27 08:47:47;;;;;;;18.93;6.23;;;;;;;12.69;54.77;97352.28;5077886;28;20312;-69
2022/03/27 08:50:26;;;;;;;14.90;4.77;;;;;;;12.97;53.84;97351.00;5077844;28;20653;-67
2022/03/27 08:52:57;;;;;;;11.00;5.00;;;;;;;13.16;52.47;97348.00;5077613;28;20200;-66
2022/03/27 08:55:37;;;;;;;15.43;5.27;;;;;;;13.24;51.57;97350.66;5079451;28;20224;-68
2022/03/27 08:58:04;;;;;;;23.67;5.83;;;;;;;13.15;52.14;97352.50;5079351;28;20203;-69
2022/03/27 09:00:33;;;;;;;19.20;5.70;;;;;;;13.38;52.32;97356.94;5079458;28;20236;-67
2022/03/27 09:03:02;;;;;;;12.90;4.23;;;;;;;13.23;51.80;97363.06;5078936;28;20214;-69
2022/03/27 09:05:29;;;;;;;13.33;4.67;;;;;;;13.24;52.26;97355.94;5078740;28;20231;-68
2022/03/27 09:07:57;;;;;;;16.10;5.22;;;;;;;13.35;51.63;97358.28;5076493;28;21054;-69
2022/03/27 09:10:25;;;;;;;13.57;5.00;;;;;;;13.23;51.81;97355.13;5080217;28;20207;-68
2022/03/27 09:12:52;;;;;;;17.70;5.57;;;;;;;13.50;50.48;97347.69;5078551;28;20672;-66
2022/03/27 09:15:20;;;;;;;14.20;4.68;;;;;;;13.69;49.88;97355.22;5078568;28;20219;-67
2022/03/27 09:18:04;;;;;;;16.17;5.47;;;;;;;13.77;50.30;97349.09;5079182;28;20196;-69
2022/03/27 09:20:40;;;;;;;15.98;4.55;;;;;;;13.87;50.72;97350.53;5078976;28;20302;-68
2022/03/27 09:23:15;;;;;;;22.58;4.75;;;;;;;14.05;50.32;97348.50;5077823;28;20200;-65
2022/03/27 09:25:47;;;;;;;24.42;5.00;;;;;;;14.28;50.65;97350.28;5079034;28;20215;-67
2022/03/27 09:28:21;;;;;;;16.88;4.93;;;;;;;14.28;49.25;97344.97;5079481;28;20224;-67
2022/03/27 09:30:47;;;;;;;17.15;4.97;;;;;;;14.55;49.56;97346.28;5078891;28;20199;-67
2022/03/27 09:33:30;;;;;;;14.25;5.13;;;;;;;15.13;48.00;97347.41;5078460;28;20203;-66
2022/03/27 09:36:04;;;;;;;21.77;4.60;;;;;;;14.89;49.41;97345.75;5078523;28;20224;-67
2022/03/27 09:38:31;;;;;;;16.10;4.88;;;;;;;15.16;48.36;97341.72;5079074;28;20291;-67
2022/03/27 09:40:57;;;;;;;14.48;5.43;;;;;;;15.32;46.72;97342.44;5079218;28;20226;-68
2022/03/27 09:43:24;;;;;;;12.50;4.72;;;;;;;15.31;47.82;97330.16;5077805;28;20211;-66
2022/03/27 09:45:57;;;;;;;14.52;5.60;;;;;;;15.68;46.36;97341.63;5078655;28;20219;-67
2022/03/27 09:48:25;;;;;;;18.65;6.32;;;;;;;15.55;45.47;97348.53;5078644;28;20238;-67
2022/03/27 09:50:53;;;;;;;16.02;5.80;;;;;;;15.53;46.23;97342.56;5078711;28;20203;-65
2022/03/27 09:53:23;;;;;;;10.65;4.45;;;;;;;15.55;44.85;97343.22;5077742;28;20204;-66
2022/03/27 09:56:10;;;;;;;15.23;5.90;;;;;;;15.72;45.05;97334.09;5078542;28;20227;-67
2022/03/27 09:58:39;;;;;;;12.05;4.60;;;;;;;15.74;45.32;97334.75;5078590;28;20199;-66
2022/03/27 10:01:10;;;;;;;15.02;5.95;;;;;;;15.95;45.04;97333.81;5078005;28;20690;-67
2022/03/27 10:03:57;;;;;;;15.93;5.20;;;;;;;16.24;45.08;97331.16;5077609;28;20578;-66
2022/03/27 10:06:31;;;;;;;16.48;5.65;;;;;;;16.28;44.54;97327.16;5078117;28;20272;-67
2022/03/27 10:08:59;;;;;;;22.50;5.45;;;;;;;16.40;44.21;97325.66;5075014;28;20254;-68
2022/03/27 10:11:27;;;;;;;19.63;6.32;;;;;;;16.30;43.03;97319.78;5076858;28;20397;-68
2022/03/27 10:13:54;;;;;;;15.38;6.40;;;;;;;16.43;42.64;97321.78;5077421;28;20777;-67
2022/03/27 10:16:26;;;;;;;17.55;5.72;;;;;;;16.72;44.51;97319.88;5077744;28;20212;-67
2022/03/27 10:18:58;;;;;;;17.08;5.85;;;;;;;16.75;43.72;97311.50;5077012;28;20200;-67
2022/03/27 10:21:27;;;;;;;17.08;6.10;;;;;;;16.51;42.42;97312.69;5077751;28;20671;-67
2022/03/27 10:24:01;;;;;;;18.80;6.05;;;;;;;17.08;43.26;97310.00;5076650;28;20850;-67
2022/03/27 10:26:28;;;;;;;12.85;5.53;;;;;;;16.59;42.83;97309.91;5077235;28;20241;-68
2022/03/27 10:28:55;;;;;;;22.88;6.05;;;;;;;16.86;40.97;97306.50;5077133;28;20223;-68
2022/03/27 10:31:23;;;;;;;18.63;6.55;;;;;;;16.89;42.61;97302.63;5078014;28;20219;-68
2022/03/27 10:33:53;;;;;;;18.00;5.63;;;;;;;17.07;41.02;97311.00;5077377;28;20757;-68
2022/03/27 10:36:31;;;;;;;19.42;6.40;;;;;;;17.41;39.63;97307.47;5077730;28;20223;-68
2022/03/27 10:39:05;;;;;;;16.63;5.47;;;;;;;16.96;41.02;97308.88;5078349;28;20200;-68
2022/03/27 10:41:37;;;;;;;25.55;7.18;;;;;;;17.76;42.23;97298.47;5077288;28;20217;-68
2022/03/27 10:44:13;;;;;;;21.88;6.80;;;;;;;18.23;39.69;97290.53;5076990;28;20231;-68
2022/03/27 10:46:40;;;;;;;18.77;7.30;;;;;;;17.75;38.01;97294.97;5077550;28;20286;-68
2022/03/27 10:49:12;;;;;;;18.73;6.63;;;;;;;17.97;37.52;97296.56;5077189;28;20783;-68
2022/03/27 10:51:42;;;;;;;17.63;6.38;;;;;;;17.89;38.51;97295.88;5077381;28;20231;-69
2022/03/27 10:54:11;;;;;;;18.63;5.57;;;;;;;18.21;38.23;97295.28;5077127;28;20203;-68
2022/03/27 10:56:40;;;;;;;18.05;7.13;;;;;;;18.36;37.23;97300.25;5077075;28;20681;-68
2022/03/27 10:59:12;;;;;;;22.10;7.13;;;;;;;17.90;37.97;97300.22;5077232;28;20200;-68
2022/03/27 11:01:41;;;;;;;16.13;5.07;;;;;;;17.56;38.16;97286.03;5077127;28;20251;-68
2022/03/27 11:04:09;;;;;;;19.23;5.90;;;;;;;18.02;37.85;97288.78;5076206;28;20203;-68
2022/03/27 11:06:38;;;;;;;19.30;5.47;;;;;;;18.07;37.98;97283.66;5076524;28;20671;-69
2022/03/27 11:09:08;;;;;;;22.33;6.45;;;;;;;18.15;36.58;97285.34;5074846;28;20219;-68
2022/03/27 11:12:04;;;;;;;21.83;5.93;;;;;;;18.31;36.78;97285.06;5077036;28;20212;-68
2022/03/27 11:15:04;;;;;;;17.65;6.72;;;;;;;18.66;35.85;97269.56;5076041;28;21064;-68
2022/03/27 11:17:52;;;;;;;21.73;6.80;;;;;;;19.10;37.05;97270.66;5076626;28;20672;-68
2022/03/27 11:20:52;;;;;;;21.20;5.90;;;;;;;19.82;34.12;97264.25;5076829;28;20271;-68
2022/03/27 11:23:33;;;;;;;18.70;5.50;;;;;;;19.79;31.99;97253.97;5076307;28;20357;-68
2022/03/27 11:26:02;;;;;;;16.83;5.80;;;;;;;19.28;35.32;97264.72;5076799;28;20216;-68
2022/03/27 11:28:50;;;;;;;26.27;6.55;;;;;;;19.40;35.13;97257.72;5076615;28;20314;-68
2022/03/27 11:31:29;;;;;;;26.27;7.38;;;;;;;19.62;34.05;97258.09;5077191;28;20200;-68
2022/03/27 11:34:21;;;;;;;19.75;6.45;;;;;;;19.58;32.46;97256.88;5076332;28;20576;-68
2022/03/27 11:37:22;;;;;;;20.58;7.25;;;;;;;19.62;32.79;97258.09;5076138;28;20199;-68
2022/03/27 11:39:49;;;;;;;18.60;6.47;;;;;;;19.64;31.90;97260.59;5077132;28;20292;-69
2022/03/27 11:42:34;;;;;;;14.98;5.35;;;;;;;20.28;31.57;97259.63;5076386;28;20211;-68
2022/03/27 11:45:11;;;;;;;19.63;6.35;;;;;;;20.31;32.41;97253.81;5076472;28;20274;-69
2022/03/27 11:47:40;;;;;;;18.13;6.30;;;;;;;20.39;29.20;97249.06;5076376;28;20223;-68
2022/03/27 11:50:08;;;;;;;16.08;5.18;;;;;;;20.52;30.06;97242.78;5076926;28;20223;-68